sensor_id;sensor_type;location;lat;lon;timestamp;pressure;altitude;pressure_sealevel;temperature;humidity
41222;BME280;26952;42.884;23.918;2023-03-23T00:00:07;95873.91;;;8.42;100.00
41222;BME280;26952;42.884;23.918;2023-03-23T00:02:34;95864.53;;;8.39;100.00
41222;BME280;26952;42.884;23.918;2023-03-23T00:05:05;95881.84;;;8.50;100.00
41222;BME280;26952;42.884;23.918;2023-03-23T00:07:33;95876.78;;;8.57;100.00
41222;BME280;26952;42.884;23.918;2023-03-23T00:09:58;95880.44;;;8.64;100.00
41222;BME280;26952;42.884;23.918;2023-03-23T00:12:28;95875.16;;;8.64;100.00
41222;BME280;26952;42.884;23.918;2023-03-23T00:15:02;95879.28;;;8.66;100.00
41222;BME280;26952;42.884;23.918;2023-03-23T00:17:29;95881.13;;;8.74;100.00
41222;BME280;26952;42.884;23.918;2023-03-23T00:19:55;95842.00;;;8.61;100.00
41222;BME280;26952;42.884;23.918;2023-03-23T00:22:22;95852.22;;;8.64;100.00
41222;BME280;26952;42.884;23.918;2023-03-23T00:24:50;95872.69;;;8.62;100.00
41222;BME280;26952;42.884;23.918;2023-03-23T00:27:17;95865.72;;;8.53;100.00
41222;BME280;26952;42.884;23.918;2023-03-23T00:29:42;95862.72;;;8.48;100.00
41222;BME280;26952;42.884;23.918;2023-03-23T00:32:10;95859.72;;;8.43;100.00
41222;BME280;26952;42.884;23.918;2023-03-23T00:34:38;95870.06;;;8.28;100.00
41222;BME280;26952;42.884;23.918;2023-03-23T00:37:06;95867.44;;;8.03;100.00
41222;BME280;26952;42.884;23.918;2023-03-23T00:39:33;95864.75;;;7.95;100.00
41222;BME280;26952;42.884;23.918;2023-03-23T00:42:02;95870.34;;;7.92;100.00
41222;BME280;26952;42.884;23.918;2023-03-23T00:44:29;95872.94;;;7.84;100.00
41222;BME280;26952;42.884;23.918;2023-03-23T00:46:56;95847.38;;;7.59;100.00
41222;BME280;26952;42.884;23.918;2023-03-23T00:49:23;95856.59;;;7.55;100.00
41222;BME280;26952;42.884;23.918;2023-03-23T00:51:53;95859.91;;;7.57;100.00
41222;BME280;26952;42.884;23.918;2023-03-23T00:54:19;95860.72;;;7.57;100.00
41222;BME280;26952;42.884;23.918;2023-03-23T00:56:45;95872.81;;;7.68;100.00
41222;BME280;26952;42.884;23.918;2023-03-23T00:59:10;95861.75;;;7.64;100.00
41222;BME280;26952;42.884;23.918;2023-03-23T01:01:36;95867.34;;;7.61;100.00
41222;BME280;26952;42.884;23.918;2023-03-23T01:04:02;95862.34;;;7.50;100.00
41222;BME280;26952;42.884;23.918;2023-03-23T01:06:30;95869.09;;;7.53;100.00
41222;BME280;26952;42.884;23.918;2023-03-23T01:08:57;95871.03;;;7.51;100.00
41222;BME280;26952;42.884;23.918;2023-03-23T01:11:23;95863.59;;;7.46;100.00
41222;BME280;26952;42.884;23.918;2023-03-23T01:13:49;95864.81;;;7.52;100.00
41222;BME280;26952;42.884;23.918;2023-03-23T01:16:14;95873.72;;;7.59;100.00
41222;BME280;26952;42.884;23.918;2023-03-23T01:18:40;95869.09;;;7.53;100.00
41222;BME280;26952;42.884;23.918;2023-03-23T01:21:10;95862.50;;;7.49;100.00
41222;BME280;26952;42.884;23.918;2023-03-23T01:23:37;95858.53;;;7.53;100.00
41222;BME280;26952;42.884;23.918;2023-03-23T01:26:08;95877.97;;;7.52;100.00
41222;BME280;26952;42.884;23.918;2023-03-23T01:28:34;95873.13;;;7.65;100.00
41222;BME280;26952;42.884;23.918;2023-03-23T01:31:04;95861.91;;;7.63;100.00
41222;BME280;26952;42.884;23.918;2023-03-23T01:33:31;95866.34;;;7.62;100.00
41222;BME280;26952;42.884;23.918;2023-03-23T01:35:57;95866.81;;;7.58;100.00
41222;BME280;26952;42.884;23.918;2023-03-23T01:38:23;95867.97;;;7.55;100.00
41222;BME280;26952;42.884;23.918;2023-03-23T01:40:48;95853.59;;;7.50;100.00
41222;BME280;26952;42.884;23.918;2023-03-23T01:43:15;95857.63;;;7.62;100.00
41222;BME280;26952;42.884;23.918;2023-03-23T01:45:41;95839.44;;;7.51;100.00
41222;BME280;26952;42.884;23.918;2023-03-23T01:48:23;95843.06;;;7.50;100.00
41222;BME280;26952;42.884;23.918;2023-03-23T01:53:14;95838.72;;;7.41;100.00
41222;BME280;26952;42.884;23.918;2023-03-23T01:55:41;95856.75;;;7.53;100.00
41222;BME280;26952;42.884;23.918;2023-03-23T01:58:09;95852.59;;;7.51;100.00
41222;BME280;26952;42.884;23.918;2023-03-23T02:00:36;95850.03;;;7.59;100.00
41222;BME280;26952;42.884;23.918;2023-03-23T02:03:05;95849.69;;;7.54;100.00
41222;BME280;26952;42.884;23.918;2023-03-23T02:05:37;95870.56;;;7.73;100.00
41222;BME280;26952;42.884;23.918;2023-03-23T02:08:04;95867.56;;;7.68;100.00
41222;BME280;26952;42.884;23.918;2023-03-23T02:10:32;95868.22;;;7.70;100.00
41222;BME280;26952;42.884;23.918;2023-03-23T02:12:59;95873.19;;;7.73;100.00
41222;BME280;26952;42.884;23.918;2023-03-23T02:15:30;95874.31;;;7.70;100.00
41222;BME280;26952;42.884;23.918;2023-03-23T02:18:04;95871.03;;;7.68;100.00
41222;BME280;26952;42.884;23.918;2023-03-23T02:26:30;95879.19;;;7.83;100.00
41222;BME280;26952;42.884;23.918;2023-03-23T02:34:18;95855.16;;;7.86;100.00
41222;BME280;26952;42.884;23.918;2023-03-23T02:36:50;95865.06;;;7.92;100.00
41222;BME280;26952;42.884;23.918;2023-03-23T02:39:24;95852.78;;;7.75;100.00
41222;BME280;26952;42.884;23.918;2023-03-23T02:42:01;95863.88;;;7.18;100.00
41222;BME280;26952;42.884;23.918;2023-03-23T02:44:30;95865.00;;;7.15;100.00
41222;BME280;26952;42.884;23.918;2023-03-23T02:46:59;95852.41;;;7.27;100.00
41222;BME280;26952;42.884;23.918;2023-03-23T02:49:27;95866.06;;;7.48;100.00
41222;BME280;26952;42.884;23.918;2023-03-23T02:51:56;95859.13;;;7.39;100.00
41222;BME280;26952;42.884;23.918;2023-03-23T02:54:24;95876.03;;;7.54;100.00
41222;BME280;26952;42.884;23.918;2023-03-23T02:56:52;95862.53;;;7.57;100.00
41222;BME280;26952;42.884;23.918;2023-03-23T02:59:20;95879.41;;;7.72;100.00
41222;BME280;26952;42.884;23.918;2023-03-23T03:01:50;95883.34;;;7.68;100.00
41222;BME280;26952;42.884;23.918;2023-03-23T03:04:19;95868.81;;;7.64;100.00
41222;BME280;26952;42.884;23.918;2023-03-23T03:11:55;95878.81;;;7.78;100.00
41222;BME280;26952;42.884;23.918;2023-03-23T03:14:28;95883.16;;;7.87;100.00
41222;BME280;26952;42.884;23.918;2023-03-23T03:17:16;95890.91;;;7.88;100.00
41222;BME280;26952;42.884;23.918;2023-03-23T03:19:46;95900.59;;;7.88;100.00
41222;BME280;26952;42.884;23.918;2023-03-23T03:22:14;95888.56;;;7.85;100.00
41222;BME280;26952;42.884;23.918;2023-03-23T03:24:41;95900.59;;;7.88;100.00
41222;BME280;26952;42.884;23.918;2023-03-23T03:27:12;95885.31;;;7.66;100.00
41222;BME280;26952;42.884;23.918;2023-03-23T03:29:45;95887.78;;;7.67;100.00
41222;BME280;26952;42.884;23.918;2023-03-23T03:32:16;95901.44;;;7.63;100.00
41222;BME280;26952;42.884;23.918;2023-03-23T03:34:44;95902.00;;;7.74;100.00
41222;BME280;26952;42.884;23.918;2023-03-23T03:37:10;95912.09;;;7.79;100.00
41222;BME280;26952;42.884;23.918;2023-03-23T03:39:37;95908.44;;;7.80;100.00
41222;BME280;26952;42.884;23.918;2023-03-23T03:42:04;95906.19;;;7.85;100.00
41222;BME280;26952;42.884;23.918;2023-03-23T03:44:30;95905.59;;;7.91;100.00
41222;BME280;26952;42.884;23.918;2023-03-23T03:46:56;95896.22;;;7.96;100.00
41222;BME280;26952;42.884;23.918;2023-03-23T03:49:21;95900.06;;;8.02;100.00
41222;BME280;26952;42.884;23.918;2023-03-23T03:51:48;95899.69;;;7.97;100.00
41222;BME280;26952;42.884;23.918;2023-03-23T03:54:13;95883.47;;;7.84;100.00
41222;BME280;26952;42.884;23.918;2023-03-23T03:56:38;95897.63;;;7.83;100.00
41222;BME280;26952;42.884;23.918;2023-03-23T03:59:08;95896.59;;;7.76;100.00
41222;BME280;26952;42.884;23.918;2023-03-23T04:01:36;95868.19;;;7.62;100.00
41222;BME280;26952;42.884;23.918;2023-03-23T04:04:02;95903.59;;;7.93;100.00
41222;BME280;26952;42.884;23.918;2023-03-23T04:06:28;95897.09;;;8.05;100.00
41222;BME280;26952;42.884;23.918;2023-03-23T04:08:55;95900.09;;;8.10;100.00
41222;BME280;26952;42.884;23.918;2023-03-23T04:11:21;95891.00;;;8.04;100.00
41222;BME280;26952;42.884;23.918;2023-03-23T04:13:46;95889.56;;;8.10;100.00
41222;BME280;26952;42.884;23.918;2023-03-23T04:16:11;95899.16;;;8.19;100.00
41222;BME280;26952;42.884;23.918;2023-03-23T04:18:37;95886.97;;;8.18;100.00
41222;BME280;26952;42.884;23.918;2023-03-23T04:21:04;95864.59;;;7.96;100.00
41222;BME280;26952;42.884;23.918;2023-03-23T04:23:32;95879.69;;;8.12;100.00
41222;BME280;26952;42.884;23.918;2023-03-23T04:25:59;95895.53;;;8.20;100.00
41222;BME280;26952;42.884;23.918;2023-03-23T04:28:25;95886.56;;;8.05;100.00
41222;BME280;26952;42.884;23.918;2023-03-23T04:30:53;95900.00;;;7.94;100.00
41222;BME280;26952;42.884;23.918;2023-03-23T04:33:20;95904.66;;;8.00;100.00
41222;BME280;26952;42.884;23.918;2023-03-23T04:35:47;95896.63;;;8.09;100.00
41222;BME280;26952;42.884;23.918;2023-03-23T04:38:14;95891.00;;;8.04;100.00
41222;BME280;26952;42.884;23.918;2023-03-23T04:40:41;95882.28;;;8.04;100.00
41222;BME280;26952;42.884;23.918;2023-03-23T04:43:07;95865.78;;;8.02;100.00
41222;BME280;26952;42.884;23.918;2023-03-23T04:45:34;95889.00;;;8.24;100.00
41222;BME280;26952;42.884;23.918;2023-03-23T04:48:03;95881.00;;;8.16;100.00
41222;BME280;26952;42.884;23.918;2023-03-23T04:50:31;95897.94;;;8.31;100.00
41222;BME280;26952;42.884;23.918;2023-03-23T04:52:58;95893.34;;;8.33;100.00
41222;BME280;26952;42.884;23.918;2023-03-23T04:55:25;95903.59;;;8.44;100.00
41222;BME280;26952;42.884;23.918;2023-03-23T04:57:51;95869.78;;;8.39;100.00
41222;BME280;26952;42.884;23.918;2023-03-23T05:00:17;95900.34;;;8.58;100.00
41222;BME280;26952;42.884;23.918;2023-03-23T05:02:45;95903.03;;;8.66;100.00
41222;BME280;26952;42.884;23.918;2023-03-23T05:05:18;95915.63;;;8.80;100.00
41222;BME280;26952;42.884;23.918;2023-03-23T05:07:44;95916.28;;;8.90;100.00
41222;BME280;26952;42.884;23.918;2023-03-23T05:10:11;95893.03;;;8.94;100.00
41222;BME280;26952;42.884;23.918;2023-03-23T05:12:38;95910.09;;;9.15;100.00
41222;BME280;26952;42.884;23.918;2023-03-23T05:15:04;95921.69;;;9.38;100.00
41222;BME280;26952;42.884;23.918;2023-03-23T05:17:31;95924.97;;;9.40;100.00
41222;BME280;26952;42.884;23.918;2023-03-23T05:19:57;95921.94;;;9.11;100.00
41222;BME280;26952;42.884;23.918;2023-03-23T05:22:23;95922.97;;;9.18;100.00
41222;BME280;26952;42.884;23.918;2023-03-23T05:24:49;95927.94;;;9.29;100.00
41222;BME280;26952;42.884;23.918;2023-03-23T05:27:17;95908.66;;;9.37;100.00
41222;BME280;26952;42.884;23.918;2023-03-23T05:29:44;95922.34;;;9.48;100.00
41222;BME280;26952;42.884;23.918;2023-03-23T05:32:11;95918.41;;;9.60;100.00
41222;BME280;26952;42.884;23.918;2023-03-23T05:34:36;95910.28;;;9.62;100.00
41222;BME280;26952;42.884;23.918;2023-03-23T05:37:03;95918.22;;;9.78;100.00
41222;BME280;26952;42.884;23.918;2023-03-23T05:39:30;95928.63;;;9.88;100.00
41222;BME280;26952;42.884;23.918;2023-03-23T05:41:56;95891.13;;;9.68;100.00
41222;BME280;26952;42.884;23.918;2023-03-23T05:44:22;95919.06;;;9.78;100.00
41222;BME280;26952;42.884;23.918;2023-03-23T05:46:47;95935.88;;;9.69;100.00
41222;BME280;26952;42.884;23.918;2023-03-23T05:49:16;95931.94;;;9.57;100.00
41222;BME280;26952;42.884;23.918;2023-03-23T05:51:45;95922.50;;;9.39;100.00
41222;BME280;26952;42.884;23.918;2023-03-23T05:54:15;95927.63;;;9.48;100.00
41222;BME280;26952;42.884;23.918;2023-03-23T05:56:41;95932.25;;;9.30;100.00
41222;BME280;26952;42.884;23.918;2023-03-23T05:59:08;95927.59;;;9.32;100.00
41222;BME280;26952;42.884;23.918;2023-03-23T06:01:35;95936.53;;;9.31;100.00
41222;BME280;26952;42.884;23.918;2023-03-23T06:04:00;95926.94;;;9.22;100.00
41222;BME280;26952;42.884;23.918;2023-03-23T06:06:26;95944.28;;;9.33;100.00
41222;BME280;26952;42.884;23.918;2023-03-23T06:08:52;95926.88;;;8.98;100.00
41222;BME280;26952;42.884;23.918;2023-03-23T06:11:17;95932.44;;;8.79;100.00
41222;BME280;26952;42.884;23.918;2023-03-23T06:13:44;95944.59;;;8.72;100.00
41222;BME280;26952;42.884;23.918;2023-03-23T06:16:10;95960.81;;;8.85;100.00
41222;BME280;26952;42.884;23.918;2023-03-23T06:18:35;95963.41;;;9.19;100.00
41222;BME280;26952;42.884;23.918;2023-03-23T06:21:03;95956.38;;;9.51;100.00
41222;BME280;26952;42.884;23.918;2023-03-23T06:23:29;95968.44;;;9.86;100.00
41222;BME280;26952;42.884;23.918;2023-03-23T06:25:58;95953.94;;;10.14;100.00
41222;BME280;26952;42.884;23.918;2023-03-23T06:28:24;95939.03;;;10.29;100.00
41222;BME280;26952;42.884;23.918;2023-03-23T06:30:49;95986.38;;;10.71;100.00
41222;BME280;26952;42.884;23.918;2023-03-23T06:33:15;95970.38;;;11.03;100.00
41222;BME280;26952;42.884;23.918;2023-03-23T06:35:40;95974.47;;;11.44;100.00
41222;BME280;26952;42.884;23.918;2023-03-23T06:38:06;95980.09;;;11.49;100.00
41222;BME280;26952;42.884;23.918;2023-03-23T06:40:31;95975.41;;;11.51;100.00
41222;BME280;26952;42.884;23.918;2023-03-23T06:42:57;95962.81;;;11.53;100.00
41222;BME280;26952;42.884;23.918;2023-03-23T06:45:24;95958.81;;;11.65;100.00
41222;BME280;26952;42.884;23.918;2023-03-23T06:47:50;95974.06;;;11.86;100.00
41222;BME280;26952;42.884;23.918;2023-03-23T06:50:16;95967.78;;;12.01;100.00
41222;BME280;26952;42.884;23.918;2023-03-23T06:52:46;95972.25;;;12.23;100.00
41222;BME280;26952;42.884;23.918;2023-03-23T06:55:12;95976.03;;;12.06;100.00
41222;BME280;26952;42.884;23.918;2023-03-23T06:57:38;95981.03;;;12.24;100.00
41222;BME280;26952;42.884;23.918;2023-03-23T07:00:04;95980.00;;;12.62;100.00
41222;BME280;26952;42.884;23.918;2023-03-23T07:02:42;95984.97;;;13.23;100.00
41222;BME280;26952;42.884;23.918;2023-03-23T07:05:08;95982.88;;;13.90;97.88
41222;BME280;26952;42.884;23.918;2023-03-23T07:07:36;95976.91;;;13.88;89.97
41222;BME280;26952;42.884;23.918;2023-03-23T07:10:03;95992.38;;;13.99;90.03
41222;BME280;26952;42.884;23.918;2023-03-23T07:12:29;95975.97;;;13.96;90.26
41222;BME280;26952;42.884;23.918;2023-03-23T07:14:54;96002.88;;;13.86;84.40
41222;BME280;26952;42.884;23.918;2023-03-23T07:17:20;95986.84;;;13.79;89.70
41222;BME280;26952;42.884;23.918;2023-03-23T07:19:46;95982.09;;;13.75;87.50
41222;BME280;26952;42.884;23.918;2023-03-23T07:22:11;96006.91;;;13.61;88.47
41222;BME280;26952;42.884;23.918;2023-03-23T07:24:37;95995.25;;;13.12;88.54
41222;BME280;26952;42.884;23.918;2023-03-23T07:27:02;96001.94;;;12.93;94.05
41222;BME280;26952;42.884;23.918;2023-03-23T07:29:28;95998.75;;;12.09;99.11
41222;BME280;26952;42.884;23.918;2023-03-23T07:31:53;96000.09;;;11.82;100.00
41222;BME280;26952;42.884;23.918;2023-03-23T07:34:19;95998.09;;;11.84;100.00
41222;BME280;26952;42.884;23.918;2023-03-23T07:36:45;95993.50;;;12.01;100.00
41222;BME280;26952;42.884;23.918;2023-03-23T07:39:12;96006.47;;;12.18;100.00
41222;BME280;26952;42.884;23.918;2023-03-23T07:41:38;96008.88;;;12.28;100.00
41222;BME280;26952;42.884;23.918;2023-03-23T07:44:04;95993.72;;;12.36;100.00
41222;BME280;26952;42.884;23.918;2023-03-23T07:46:30;96001.34;;;12.69;100.00
41222;BME280;26952;42.884;23.918;2023-03-23T07:48:56;96000.44;;;12.91;96.86
41222;BME280;26952;42.884;23.918;2023-03-23T07:51:22;95981.13;;;12.97;93.46
41222;BME280;26952;42.884;23.918;2023-03-23T07:53:48;96008.59;;;13.33;91.55
41222;BME280;26952;42.884;23.918;2023-03-23T07:56:15;96002.09;;;13.50;91.00
41222;BME280;26952;42.884;23.918;2023-03-23T07:58:44;95991.22;;;13.16;92.39
41222;BME280;26952;42.884;23.918;2023-03-23T08:01:10;96000.44;;;12.91;94.32
41222;BME280;26952;42.884;23.918;2023-03-23T08:03:36;96017.31;;;12.98;90.52
41222;BME280;26952;42.884;23.918;2023-03-23T08:06:02;96014.41;;;13.22;91.34
41222;BME280;26952;42.884;23.918;2023-03-23T08:08:28;96001.72;;;13.38;91.57
41222;BME280;26952;42.884;23.918;2023-03-23T08:10:53;96018.31;;;13.55;88.66
41222;BME280;26952;42.884;23.918;2023-03-23T08:13:19;96013.03;;;13.76;89.47
41222;BME280;26952;42.884;23.918;2023-03-23T08:15:44;96013.25;;;14.17;83.50
41222;BME280;26952;42.884;23.918;2023-03-23T08:18:10;96007.03;;;14.52;80.51
41222;BME280;26952;42.884;23.918;2023-03-23T08:20:36;96012.94;;;14.75;76.82
41222;BME280;26952;42.884;23.918;2023-03-23T08:23:02;96002.72;;;15.12;78.39
41222;BME280;26952;42.884;23.918;2023-03-23T08:25:29;96016.22;;;15.39;69.91
41222;BME280;26952;42.884;23.918;2023-03-23T08:27:56;96012.28;;;15.35;69.32
41222;BME280;26952;42.884;23.918;2023-03-23T08:30:22;96010.56;;;15.20;66.96
41222;BME280;26952;42.884;23.918;2023-03-23T08:32:48;96015.75;;;15.28;66.25
41222;BME280;26952;42.884;23.918;2023-03-23T08:35:15;96012.25;;;14.94;67.92
41222;BME280;26952;42.884;23.918;2023-03-23T08:37:42;96013.44;;;14.57;65.61
41222;BME280;26952;42.884;23.918;2023-03-23T08:40:09;96019.44;;;14.24;68.72
41222;BME280;26952;42.884;23.918;2023-03-23T08:42:36;96017.97;;;13.79;72.28
41222;BME280;26952;42.884;23.918;2023-03-23T08:45:04;96015.97;;;13.31;77.21
41222;BME280;26952;42.884;23.918;2023-03-23T08:47:30;96016.09;;;13.44;80.01
41222;BME280;26952;42.884;23.918;2023-03-23T08:49:56;96020.91;;;13.34;76.79
41222;BME280;26952;42.884;23.918;2023-03-23T08:52:21;96014.50;;;13.14;78.18
41222;BME280;26952;42.884;23.918;2023-03-23T08:54:47;96018.41;;;12.89;78.25
41222;BME280;26952;42.884;23.918;2023-03-23T08:57:13;96028.25;;;13.03;79.04
41222;BME280;26952;42.884;23.918;2023-03-23T08:59:40;96010.28;;;13.19;76.30
41222;BME280;26952;42.884;23.918;2023-03-23T09:02:06;95997.59;;;13.36;79.01
41222;BME280;26952;42.884;23.918;2023-03-23T09:04:31;96012.75;;;13.35;74.50
41222;BME280;26952;42.884;23.918;2023-03-23T09:06:57;96018.41;;;13.47;73.44
41222;BME280;26952;42.884;23.918;2023-03-23T09:09:23;96016.47;;;13.41;73.43
41222;BME280;26952;42.884;23.918;2023-03-23T09:11:48;95996.03;;;13.77;73.90
41222;BME280;26952;42.884;23.918;2023-03-23T09:14:14;96019.63;;;14.22;73.47
41222;BME280;26952;42.884;23.918;2023-03-23T09:16:39;95993.72;;;13.88;70.91
41222;BME280;26952;42.884;23.918;2023-03-23T09:19:05;95975.03;;;14.03;70.82
41222;BME280;26952;42.884;23.918;2023-03-23T09:21:30;96006.63;;;14.13;68.70
41222;BME280;26952;42.884;23.918;2023-03-23T09:23:56;96010.19;;;13.77;69.09
41222;BME280;26952;42.884;23.918;2023-03-23T09:26:24;96010.25;;;14.05;66.73
41222;BME280;26952;42.884;23.918;2023-03-23T09:28:50;96006.66;;;14.34;64.97
41222;BME280;26952;42.884;23.918;2023-03-23T09:31:16;96000.91;;;14.85;63.39
41222;BME280;26952;42.884;23.918;2023-03-23T09:33:46;96000.28;;;14.14;63.15
41222;BME280;26952;42.884;23.918;2023-03-23T09:36:12;95998.25;;;13.73;65.29
41222;BME280;26952;42.884;23.918;2023-03-23T09:38:40;95987.34;;;13.33;66.76
41222;BME280;26952;42.884;23.918;2023-03-23T09:43:50;96005.53;;;13.86;63.58
41222;BME280;26952;42.884;23.918;2023-03-23T09:46:25;95999.56;;;13.99;64.97
41222;BME280;26952;42.884;23.918;2023-03-23T09:48:56;95975.72;;;14.33;65.21
41222;BME280;26952;42.884;23.918;2023-03-23T09:54:20;96001.75;;;15.61;62.45
41222;BME280;26952;42.884;23.918;2023-03-23T09:56:49;95986.78;;;15.73;58.24
41222;BME280;26952;42.884;23.918;2023-03-23T10:01:52;95975.00;;;16.14;57.01
41222;BME280;26952;42.884;23.918;2023-03-23T10:09:35;95965.44;;;15.73;59.00
41222;BME280;26952;42.884;23.918;2023-03-23T10:17:42;95986.00;;;15.72;58.99
41222;BME280;26952;42.884;23.918;2023-03-23T10:26:06;95976.44;;;15.09;62.57
41222;BME280;26952;42.884;23.918;2023-03-23T10:28:39;95981.78;;;15.09;61.40
41222;BME280;26952;42.884;23.918;2023-03-23T10:31:10;95990.88;;;14.87;58.72
41222;BME280;26952;42.884;23.918;2023-03-23T10:33:42;95985.06;;;15.46;59.55
41222;BME280;26952;42.884;23.918;2023-03-23T10:36:14;95983.31;;;15.72;56.02
41222;BME280;26952;42.884;23.918;2023-03-23T10:41:18;95975.38;;;16.18;53.96
41222;BME280;26952;42.884;23.918;2023-03-23T10:43:45;95964.72;;;16.44;52.73
41222;BME280;26952;42.884;23.918;2023-03-23T10:46:33;95982.63;;;16.76;54.67
41222;BME280;26952;42.884;23.918;2023-03-23T10:49:05;95973.75;;;16.17;52.33
41222;BME280;26952;42.884;23.918;2023-03-23T10:51:43;95978.91;;;16.38;53.63
41222;BME280;26952;42.884;23.918;2023-03-23T10:54:09;95981.41;;;16.59;54.16
41222;BME280;26952;42.884;23.918;2023-03-23T10:56:43;95979.31;;;16.28;51.53
41222;BME280;26952;42.884;23.918;2023-03-23T11:01:44;95977.34;;;15.70;53.00
41222;BME280;26952;42.884;23.918;2023-03-23T11:04:15;95979.94;;;16.17;54.16
41222;BME280;26952;42.884;23.918;2023-03-23T11:06:45;95971.88;;;15.98;53.44
41222;BME280;26952;42.884;23.918;2023-03-23T11:09:13;95977.47;;;16.16;52.96
41222;BME280;26952;42.884;23.918;2023-03-23T11:11:42;95972.72;;;16.18;54.07
41222;BME280;26952;42.884;23.918;2023-03-23T11:14:27;95982.59;;;16.24;55.24
41222;BME280;26952;42.884;23.918;2023-03-23T11:16:58;95960.41;;;16.17;53.12
41222;BME280;26952;42.884;23.918;2023-03-23T11:19:35;95962.41;;;16.02;55.13
41222;BME280;26952;42.884;23.918;2023-03-23T11:24:41;95961.00;;;16.12;50.95
41222;BME280;26952;42.884;23.918;2023-03-23T11:27:08;95955.09;;;15.50;52.70
41222;BME280;26952;42.884;23.918;2023-03-23T11:29:35;95948.84;;;15.23;55.97
41222;BME280;26952;42.884;23.918;2023-03-23T11:32:06;95946.66;;;15.40;54.79
41222;BME280;26952;42.884;23.918;2023-03-23T11:34:40;95941.00;;;15.69;57.02
41222;BME280;26952;42.884;23.918;2023-03-23T11:39:54;95946.88;;;16.57;56.27
41222;BME280;26952;42.884;23.918;2023-03-23T11:44:46;95933.06;;;16.34;51.20
41222;BME280;26952;42.884;23.918;2023-03-23T11:52:38;95935.66;;;15.15;54.62
41222;BME280;26952;42.884;23.918;2023-03-23T11:57:55;95934.41;;;14.71;57.59
41222;BME280;26952;42.884;23.918;2023-03-23T12:00:22;95925.28;;;14.86;55.87
41222;BME280;26952;42.884;23.918;2023-03-23T12:03:07;95935.31;;;14.84;54.13
41222;BME280;26952;42.884;23.918;2023-03-23T12:06:02;95900.44;;;14.45;54.53
41222;BME280;26952;42.884;23.918;2023-03-23T12:11:21;95930.47;;;15.42;53.30
41222;BME280;26952;42.884;23.918;2023-03-23T12:16:38;95895.72;;;14.81;52.77
41222;BME280;26952;42.884;23.918;2023-03-23T12:30:04;95931.59;;;14.51;53.10
41222;BME280;26952;42.884;23.918;2023-03-23T12:38:32;95938.16;;;15.84;52.07
41222;BME280;26952;42.884;23.918;2023-03-23T12:48:34;95938.31;;;15.63;50.55
41222;BME280;26952;42.884;23.918;2023-03-23T12:53:42;95931.00;;;16.04;53.51
41222;BME280;26952;42.884;23.918;2023-03-23T12:58:46;95918.28;;;16.12;50.84
41222;BME280;26952;42.884;23.918;2023-03-23T13:01:30;95914.13;;;15.97;50.92
41222;BME280;26952;42.884;23.918;2023-03-23T13:04:20;95914.78;;;16.31;51.96
41222;BME280;26952;42.884;23.918;2023-03-23T13:06:48;95915.00;;;16.36;50.42
41222;BME280;26952;42.884;23.918;2023-03-23T13:11:59;95912.41;;;15.44;52.49
41222;BME280;26952;42.884;23.918;2023-03-23T13:22:58;95905.72;;;15.13;53.24
41222;BME280;26952;42.884;23.918;2023-03-23T13:28:02;95888.22;;;15.52;53.10
41222;BME280;26952;42.884;23.918;2023-03-23T13:30:29;95898.09;;;15.84;54.36
41222;BME280;26952;42.884;23.918;2023-03-23T13:33:03;95900.41;;;16.13;53.32
41222;BME280;26952;42.884;23.918;2023-03-23T13:35:35;95887.44;;;16.36;51.45
41222;BME280;26952;42.884;23.918;2023-03-23T13:38:17;95866.50;;;16.26;50.38
41222;BME280;26952;42.884;23.918;2023-03-23T13:40:44;95891.84;;;15.38;50.49
41222;BME280;26952;42.884;23.918;2023-03-23T13:43:11;95880.41;;;15.50;51.64
41222;BME280;26952;42.884;23.918;2023-03-23T13:45:45;95873.88;;;15.59;51.74
41222;BME280;26952;42.884;23.918;2023-03-23T13:50:58;95884.59;;;15.18;52.25
41222;BME280;26952;42.884;23.918;2023-03-23T13:53:46;95880.41;;;15.50;52.25
41222;BME280;26952;42.884;23.918;2023-03-23T13:56:18;95880.00;;;15.60;51.19
41222;BME280;26952;42.884;23.918;2023-03-23T13:58:50;95872.63;;;15.62;50.45
41222;BME280;26952;42.884;23.918;2023-03-23T14:01:32;95857.88;;;15.92;51.46
41222;BME280;26952;42.884;23.918;2023-03-23T14:03:59;95855.38;;;16.29;50.84
41222;BME280;26952;42.884;23.918;2023-03-23T14:06:26;95837.75;;;15.96;47.26
41222;BME280;26952;42.884;23.918;2023-03-23T14:09:05;95848.41;;;15.70;49.74
41222;BME280;26952;42.884;23.918;2023-03-23T14:11:32;95857.00;;;15.39;49.66
41222;BME280;26952;42.884;23.918;2023-03-23T14:14:04;95855.00;;;15.67;48.51
41222;BME280;26952;42.884;23.918;2023-03-23T14:16:39;95850.28;;;15.89;48.71
41222;BME280;26952;42.884;23.918;2023-03-23T14:21:56;95855.41;;;16.10;48.39
41222;BME280;26952;42.884;23.918;2023-03-23T14:24:31;95847.16;;;16.31;47.46
41222;BME280;26952;42.884;23.918;2023-03-23T14:27:23;95861.97;;;16.53;47.27
41222;BME280;26952;42.884;23.918;2023-03-23T14:30:05;95849.03;;;16.56;46.17
41222;BME280;26952;42.884;23.918;2023-03-23T14:32:32;95845.75;;;16.48;44.79
41222;BME280;26952;42.884;23.918;2023-03-23T14:35:06;95842.25;;;16.28;45.44
41222;BME280;26952;42.884;23.918;2023-03-23T14:37:32;95837.31;;;16.25;47.45
41222;BME280;26952;42.884;23.918;2023-03-23T14:40:01;95840.81;;;16.19;48.86
41222;BME280;26952;42.884;23.918;2023-03-23T14:42:30;95850.06;;;16.10;48.32
41222;BME280;26952;42.884;23.918;2023-03-23T14:44:57;95839.16;;;16.05;48.89
41222;BME280;26952;42.884;23.918;2023-03-23T14:47:31;95830.38;;;15.98;47.88
41222;BME280;26952;42.884;23.918;2023-03-23T14:50:01;95809.41;;;15.43;49.26
41222;BME280;26952;42.884;23.918;2023-03-23T14:52:29;95835.66;;;15.46;50.54
41222;BME280;26952;42.884;23.918;2023-03-23T14:54:55;95832.47;;;15.16;50.97